Wind EuroAirport

Messzeit Windrichtung Windgeschwindigkeit [Knoten] Rückenwind Nordpiste [Knoten] METAR
2017-10-22 19:00 W 260° 10 2 LFSB 221700Z 26010KT 9999 FEW026 SCT041 BKN060 09/06 Q1020 TEMPO 28012G22KT 4500 SHRA
2017-10-22 18:30 SW 240° 4 - LFSB 221630Z 24004KT 9999 -SHRA FEW026 FEW033TCU SCT041 BKN053 09/07 Q1019 TEMPO 28012G22KT 4500 SHRA
2017-10-22 18:00 SW 240° 9 - LFSB 221600Z 24009KT 9999 FEW026 FEW033CB SCT041 BKN053 10/06 Q1019 TEMPO 28020G30KT 4000 SHRA
2017-10-22 17:30 SW 240° 13 - LFSB 221530Z 24013KT 9999 FEW026 FEW033TCU SCT040 BKN093 11/06 Q1019 TEMPO 28020G30KT 4000 SHRA
2017-10-22 17:00 W 270°
(240°–310°)
7 0–6 LFSB 221500Z 27007KT 240V310 9999 FEW026 SCT040 BKN180 12/06 Q1019 TEMPO 28020G30KT 4000 SHRA
2017-10-22 16:30 W 270°
(240°–300°)
11 0–8 LFSB 221430Z 27011KT 240V300 9999 -SHRA FEW026 FEW033CB BKN040 BKN150 11/06 Q1019 TEMPO 28020G30KT 4000 SHRA
2017-10-22 16:00 W 270°
(230°–330°)
3 0–3 LFSB 221400Z 27003KT 230V330 9999 FEW026 FEW033TCU SCT040 BKN150 11/06 Q1019 RESHRA TEMPO 28020G30KT 4000 SHRA
2017-10-22 15:30 NW 300° 11 8 LFSB 221330Z 30011KT 9999 FEW026 FEW033CB SCT040 BKN130 09/07 Q1019 RESHRA TEMPO 28020G30KT 4000 SHRA
2017-10-22 15:00 W 250° 8 - LFSB 221300Z 25008KT 9999 FEW026 FEW033TCU SCT043 BKN140 13/06 Q1019 TEMPO 28015G30KT 4000 SHRA FEW030CB
2017-10-22 14:30 W 250° 12 - LFSB 221230Z 25012KT 9999 FEW025 FEW033TCU BKN043 BKN130 12/05 Q1019 TEMPO 28015G30KT 4000 SHRA
2017-10-22 14:00 W 260°
(220°–280°)
15 0–8 LFSB 221200Z 26015KT 220V280 9999 FEW025 FEW033CB BKN043 13/05 Q1019 TEMPO 28015G30KT 4000 SHRA
2017-10-22 13:30 W 250°
(220°–280°)
15 0–8 LFSB 221130Z 25015KT 220V280 9999 FEW025 FEW033CB BKN043 12/05 Q1019 TEMPO 28015G30KT 4000 SHRA
2017-10-22 13:00 SW 240° 17 - LFSB 221100Z 24017KT 9999 FEW030 BKN040 FEW046CB 13/05 Q1019 NOSIG
2017-10-22 12:30 SW 240°
(210°–270°)
15 0–5 LFSB 221030Z 24015KT 210V270 9999 FEW030 BKN043 FEW046TCU BKN050 13/05 Q1020 NOSIG
2017-10-22 12:00 SW 240°
(210°–270°)
10 0–3 LFSB 221000Z 24010KT 210V270 9999 FEW030 BKN043 FEW046TCU BKN050 11/06 Q1020 NOSIG
2017-10-22 11:30 SW 240°
(210°–270°)
12 0–4 LFSB 220930Z 24012KT 210V270 9999 SCT030 BKN043 FEW046TCU BKN050 11/05 Q1020 NOSIG
2017-10-22 11:00 W 250°
(210°–290°)
10 0–6 LFSB 220900Z 25010KT 210V290 9999 SCT030 BKN043 BKN050 11/05 Q1020 NOSIG
2017-10-22 10:30 SW 220°
(180°–260°)
5 0–1 LFSB 220830Z 22005KT 180V260 9999 SCT030 BKN043 12/06 Q1020 NOSIG
2017-10-22 10:00 SW 230°
(190°–260°)
5 0–1 LFSB 220800Z 23005KT 190V260 9999 FEW026 BKN048 11/06 Q1020 NOSIG
2017-10-22 09:30 SW 230°
(200°–270°)
5 0–2 LFSB 220730Z 23005KT 200V270 9999 FEW026 BKN046 10/06 Q1020 NOSIG
2017-10-22 09:00 SW 220°
(200°–270°)
6 0–2 LFSB 220700Z 22006KT 200V270 9999 FEW026 SCT033 09/05 Q1020 NOSIG
2017-10-22 08:30 SW 230° 5 - LFSB 220630Z 23005KT 9999 FEW023 SCT033 09/05 Q1020 NOSIG
2017-10-22 08:00 S 200°
(160°–280°)
5 0–3 LFSB 220600Z 20005KT 160V280 9999 FEW020 SCT035 10/05 Q1020 NOSIG
2017-10-22 07:30 - 3 - LFSB 220530Z VRB03KT 9999 FEW020 BKN035 BKN130 09/05 Q1020 NOSIG
2017-10-22 07:00 S 200°
(160°–270°)
4 0–1 LFSB 220500Z 20004KT 160V270 9999 FEW020 SCT035 BKN130 10/05 Q1020 NOSIG
2017-10-22 06:30 W 260°
(230°–290°)
8 0–5 LFSB 220430Z 26008KT 230V290 9999 FEW025 SCT035 BKN130 10/06 Q1020 NOSIG
2017-10-22 06:00 W 290°
(240°–310°)
3 0–3 LFSB 220400Z 29003KT 240V310 9999 FEW025 BKN031 BKN130 11/06 Q1020 NOSIG
2017-10-22 05:30 SW 240°
(180°–330°)
3 0–3 LFSB 220330Z 24003KT 180V330 9999 FEW025 BKN035 BKN130 11/06 Q1020 NOSIG
2017-10-22 05:00 - 2 - LFSB 220300Z VRB02KT 9999 FEW030 SCT040 BKN120 11/07 Q1020 NOSIG
2017-10-22 04:30 SW 210°
(160°–250°)
5 - LFSB 220230Z 21005KT 160V250 9999 FEW030 SCT040 BKN140 12/07 Q1020 NOSIG
2017-10-22 04:00 SW 230° 10 - LFSB 220200Z 23010KT 9999 FEW040 BKN150 12/07 Q1020 NOSIG
2017-10-22 03:30 SW 230° 8 - LFSB 220130Z AUTO 23008KT 9999 FEW036 SCT054 BKN064 12/08 Q1020 NOSIG
2017-10-22 03:00 SW 220°
(190°–250°)
10 - LFSB 220100Z AUTO 22010KT 190V250 9999 FEW036 BKN060 BKN070 13/07 Q1020 NOSIG
2017-10-22 02:30 SW 230° 8 - LFSB 220030Z AUTO 23008KT 9999 FEW054 BKN066 OVC120 12/08 Q1020 NOSIG
2017-10-22 02:00 SW 210° 7 - LFSB 220000Z AUTO 21007KT CAVOK 12/08 Q1020 NOSIG
2017-10-22 01:30 S 190°
(140°–290°)
3 0–2 LFSB 212330Z AUTO 19003KT 140V290 CAVOK 11/08 Q1020 NOSIG
2017-10-22 01:00 S 160° 6 - LFSB 212300Z AUTO 16006KT 9999 FEW037 SCT043 BKN100 11/08 Q1020 NOSIG
2017-10-22 00:30 SO 130° 5 - LFSB 212230Z AUTO 13005KT 9999 BKN042 BKN052 BKN064 11/09 Q1020 BECMG 21010KT
2017-10-22 00:00 SO 140° 4 - LFSB 212200Z 14004KT 9999 FEW023 BKN040 11/08 Q1020 NOSIG
2017-10-21 23:30 O 110° 6 - LFSB 212130Z 11006KT 9999 FEW023 BKN040 BKN083 11/09 Q1020 NOSIG
2017-10-21 23:00 SO 120°
(90°–160°)
5 - LFSB 212100Z 12005KT 090V160 9999 FEW023 SCT046 BKN083 11/09 Q1020 NOSIG
2017-10-21 22:30 S 160°
(130°–230°)
4 - LFSB 212030Z 16004KT 130V230 9999 -RA FEW023 BKN056 11/08 Q1020 TEMPO 4000 SHRA FEW050TCU
2017-10-21 22:00 SW 220°
(160°–270°)
6 0–2 LFSB 212000Z 22006KT 160V270 8000 RA SCT023 BKN070 12/09 Q1020 TEMPO 4000 SHRA FEW050TCU
2017-10-21 21:30 SO 120°
(90°–160°)
4 - LFSB 211930Z 12004KT 090V160 8000 RA SCT023 BKN070 12/10 Q1020 TEMPO 4000 SHRA FEW050TCU
2017-10-21 21:00 - 2 - LFSB 211900Z VRB02KT 9999 -RA BKN030 BKN046 12/10 Q1020 TEMPO 4000 SHRA FEW050TCU
2017-10-21 20:30 - 3 - LFSB 211830Z VRB03KT 9999 -RA FEW036 BKN046 12/10 Q1020 TEMPO 28010G20KT 4000 SHRA FEW050TCU
2017-10-21 20:00 SW 240°
(200°–280°)
5 0–3 LFSB 211800Z 24005KT 200V280 9999 FEW036 BKN046 12/09 Q1019 TEMPO 28010G20KT 4000 SHRA FEW050TCU
2017-10-21 19:30 W 270°
(240°–300°)
11 0–8 LFSB 211730Z 27011KT 240V300 9999 -RA FEW036 BKN046 12/09 Q1019 TEMPO 28010G20KT 4000 SHRA FEW050TCU